createdAt,value
2022-09-21T00:01:29.375Z,1.40
2022-09-21T00:04:56.283Z,1.53
2022-09-21T00:08:08.342Z,1.50
2022-09-21T00:11:33.324Z,1.60
2022-09-21T00:14:33.317Z,1.25
2022-09-21T00:18:01.347Z,1.50
2022-09-21T00:21:14.319Z,1.33
2022-09-21T00:24:27.380Z,1.20
2022-09-21T00:27:27.325Z,1.40
2022-09-21T00:30:41.418Z,1.50
2022-09-21T00:33:53.485Z,1.57
2022-09-21T00:37:20.412Z,1.15
2022-09-21T00:40:35.456Z,1.23
2022-09-21T00:44:00.419Z,1.10
2022-09-21T00:47:12.569Z,1.10
2022-09-21T00:50:36.453Z,1.45
2022-09-21T00:53:50.493Z,1.15
2022-09-21T00:57:15.671Z,1.20
2022-09-21T01:00:27.470Z,1.20
2022-09-21T01:03:52.497Z,1.17
2022-09-21T01:07:04.460Z,1.30
2022-09-21T01:10:31.483Z,1.50
2022-09-21T01:13:44.469Z,1.20
2022-09-21T01:17:10.523Z,1.20
2022-09-21T01:20:27.547Z,1.23
2022-09-21T01:23:58.595Z,1.43
2022-09-21T01:27:28.547Z,1.40
2022-09-21T01:30:55.569Z,0.80
2022-09-21T01:34:07.710Z,1.00
2022-09-21T01:37:41.570Z,1.20
2022-09-21T01:40:53.593Z,1.43
2022-09-21T01:44:18.585Z,0.90
2022-09-21T01:47:32.635Z,1.00
2022-09-21T01:50:56.580Z,0.90
2022-09-21T01:54:08.663Z,1.20
2022-09-21T01:57:36.650Z,1.33
2022-09-21T02:00:51.709Z,1.30
2022-09-21T02:04:18.703Z,1.00
2022-09-21T02:07:30.622Z,1.03
2022-09-21T02:10:55.620Z,1.40
2022-09-21T02:14:07.639Z,1.10
2022-09-21T02:17:34.641Z,1.00
2022-09-21T02:20:48.756Z,1.20
2022-09-21T02:24:16.648Z,0.93
2022-09-21T02:27:28.700Z,1.13
2022-09-21T02:30:52.677Z,1.23
2022-09-21T02:34:06.877Z,1.10
2022-09-21T02:37:32.710Z,1.07
2022-09-21T02:40:44.753Z,0.93
2022-09-21T02:44:08.702Z,1.10
2022-09-21T02:47:20.737Z,1.40
2022-09-21T02:50:45.733Z,1.00
2022-09-21T02:53:59.808Z,1.30
2022-09-21T02:57:24.766Z,1.43
2022-09-21T03:00:39.882Z,1.10
2022-09-21T03:03:51.781Z,1.07
2022-09-21T03:06:51.817Z,0.90
2022-09-21T03:10:17.805Z,0.77
2022-09-21T03:13:29.814Z,0.80
2022-09-21T03:16:44.810Z,1.00
2022-09-21T03:19:45.802Z,0.90
2022-09-21T03:22:58.899Z,1.00
2022-09-21T03:26:12.852Z,0.70
2022-09-21T03:29:25.874Z,0.83
2022-09-21T03:32:37.839Z,1.13
2022-09-21T03:35:49.878Z,1.37
2022-09-21T03:39:04.900Z,0.90
2022-09-21T03:42:30.902Z,0.73
2022-09-21T03:45:30.929Z,0.60
2022-09-21T03:48:43.968Z,0.80
2022-09-21T03:51:44.959Z,0.70
2022-09-21T03:54:59.930Z,1.03
2022-09-21T03:58:13.967Z,0.70
2022-09-21T04:01:39.027Z,0.80
2022-09-21T04:04:51.981Z,0.60
2022-09-21T04:08:05.013Z,0.90
2022-09-21T04:11:35.999Z,0.53
2022-09-21T04:14:50.103Z,0.90
2022-09-21T04:18:15.009Z,1.13
2022-09-21T04:21:15.026Z,0.80
2022-09-21T04:24:28.048Z,0.80
2022-09-21T04:27:28.068Z,0.80
2022-09-21T04:30:55.091Z,0.83
2022-09-21T04:33:55.074Z,0.77
2022-09-21T04:37:08.142Z,0.83
2022-09-21T04:40:08.282Z,1.00
2022-09-21T04:43:23.144Z,1.30
2022-09-21T04:46:37.129Z,0.87
2022-09-21T04:49:49.136Z,0.90
2022-09-21T04:52:49.131Z,0.80
2022-09-21T04:56:02.150Z,0.90
2022-09-21T04:59:02.140Z,0.73
2022-09-21T05:02:28.168Z,0.97
2022-09-21T05:05:28.191Z,0.90
2022-09-21T05:08:57.894Z,0.93
2022-09-21T05:12:01.174Z,1.13
2022-09-21T05:15:13.165Z,0.70
2022-09-21T05:18:27.184Z,0.90
2022-09-21T05:21:52.183Z,1.10
2022-09-21T05:25:07.234Z,1.03
2022-09-21T05:28:21.249Z,0.93
2022-09-21T05:31:36.269Z,0.93
2022-09-21T05:35:06.372Z,1.17
2022-09-21T05:38:19.252Z,0.80
2022-09-21T05:41:32.430Z,1.33
2022-09-21T05:44:33.282Z,1.10
2022-09-21T05:47:59.338Z,0.83
2022-09-21T05:51:15.325Z,1.17
2022-09-21T05:54:39.310Z,1.20
2022-09-21T05:57:52.288Z,0.90
2022-09-21T06:01:17.430Z,1.10
2022-09-21T06:04:33.385Z,1.17
2022-09-21T06:07:47.365Z,1.20
2022-09-21T06:11:12.373Z,1.00
2022-09-21T06:14:15.410Z,1.00
2022-09-21T06:17:27.376Z,0.90
2022-09-21T06:20:28.391Z,0.80
2022-09-21T06:23:53.388Z,0.83
2022-09-21T06:26:56.394Z,1.20
2022-09-21T06:30:09.417Z,1.00
2022-09-21T06:33:23.374Z,0.87
2022-09-21T06:36:36.423Z,1.20
2022-09-21T06:39:50.453Z,1.10
2022-09-21T06:43:02.460Z,1.20
2022-09-21T06:46:17.466Z,0.83
2022-09-21T06:49:29.510Z,0.70
2022-09-21T06:52:41.465Z,1.20
2022-09-21T06:56:08.494Z,1.10
2022-09-21T06:59:08.462Z,0.87
2022-09-21T07:02:33.536Z,1.10
2022-09-21T07:05:33.504Z,0.97
2022-09-21T07:12:14.536Z,1.13
2022-09-21T07:15:26.560Z,0.90
2022-09-21T07:18:43.566Z,0.97
2022-09-21T07:21:50.595Z,0.83
2022-09-21T07:24:50.586Z,0.90
2022-09-21T07:28:16.666Z,1.00
2022-09-21T07:31:31.661Z,1.20
2022-09-21T07:34:55.605Z,1.10
2022-09-21T07:37:55.614Z,1.50
2022-09-21T07:41:08.660Z,0.95
2022-09-21T07:44:22.647Z,1.10
2022-09-21T07:47:47.644Z,1.30
2022-09-21T07:50:50.637Z,1.37
2022-09-21T07:54:14.686Z,1.97
2022-09-21T07:57:23.796Z,1.10
2022-09-21T08:00:49.748Z,1.30
2022-09-21T08:04:13.720Z,1.40
2022-09-21T08:07:13.718Z,1.57
2022-09-21T08:10:25.732Z,1.50
2022-09-21T08:13:25.717Z,1.40
2022-09-21T08:16:51.757Z,1.70
2022-09-21T08:19:53.042Z,1.93
2022-09-21T08:23:04.749Z,2.20
2022-09-21T08:26:04.786Z,1.40
2022-09-21T08:29:28.779Z,1.95
2022-09-21T08:32:50.988Z,1.20
2022-09-21T08:35:53.771Z,2.20
2022-09-21T08:39:08.811Z,1.55
2022-09-21T08:42:38.860Z,1.75
2022-09-21T08:45:51.850Z,1.53
2022-09-21T08:49:17.828Z,1.77
2022-09-21T08:52:29.864Z,1.53
2022-09-21T08:55:56.966Z,1.40
2022-09-21T08:58:56.857Z,1.70
2022-09-21T09:02:20.877Z,1.77
2022-09-21T09:05:43.890Z,1.60
2022-09-21T09:09:13.904Z,1.57
2022-09-21T09:12:30.941Z,1.40
2022-09-21T09:16:02.928Z,1.50
2022-09-21T09:19:17.959Z,1.70
2022-09-21T09:22:43.923Z,1.50
2022-09-21T09:26:00.022Z,1.30
2022-09-21T09:29:27.985Z,1.50
2022-09-21T09:32:39.961Z,1.30
2022-09-21T09:36:04.003Z,1.50
2022-09-21T09:39:17.988Z,1.40
2022-09-21T09:42:45.000Z,1.20
2022-09-21T09:46:05.035Z,1.70
2022-09-21T09:49:31.045Z,1.20
2022-09-21T09:52:46.030Z,1.30
2022-09-21T09:56:16.077Z,1.20
2022-09-21T09:59:28.056Z,1.10
2022-09-21T10:02:45.060Z,1.30
2022-09-21T10:06:12.055Z,1.40
2022-09-21T10:09:12.089Z,1.17
2022-09-21T10:12:41.097Z,1.00
2022-09-21T10:15:53.197Z,1.10
2022-09-21T10:19:20.372Z,1.25
2022-09-21T10:22:32.129Z,1.00
2022-09-21T10:25:44.166Z,1.20
2022-09-21T10:28:58.206Z,1.10
2022-09-21T10:32:23.173Z,0.77
2022-09-21T10:35:39.219Z,1.33
2022-09-21T10:38:51.157Z,0.90
2022-09-21T10:41:52.198Z,0.70
2022-09-21T10:45:17.205Z,1.00
2022-09-21T10:48:32.243Z,0.87
2022-09-21T10:51:45.237Z,0.97
2022-09-21T10:55:00.295Z,1.10
2022-09-21T10:58:25.222Z,1.30
2022-09-21T11:01:39.269Z,1.05
2022-09-21T11:05:04.224Z,1.00
2022-09-21T11:08:16.267Z,0.77
2022-09-21T11:11:48.262Z,0.93
2022-09-21T11:15:02.292Z,1.00
2022-09-21T11:18:29.327Z,1.60
2022-09-21T11:21:42.358Z,1.27
2022-09-21T11:25:07.364Z,0.80
2022-09-21T11:28:19.329Z,0.77
2022-09-21T11:32:05.846Z,1.53
2022-09-21T11:35:27.358Z,0.90
2022-09-21T11:38:55.376Z,1.37
2022-09-21T11:42:10.377Z,1.27
2022-09-21T11:45:35.424Z,0.90
2022-09-21T11:48:52.425Z,1.10
2022-09-21T11:52:21.383Z,0.97
2022-09-21T11:55:43.410Z,0.90
2022-09-21T11:59:14.458Z,0.70
2022-09-21T12:02:34.581Z,0.77
2022-09-21T12:05:58.511Z,1.00
2022-09-21T12:09:16.452Z,0.77
2022-09-21T12:12:41.501Z,0.67
2022-09-21T12:15:53.459Z,1.17
2022-09-21T12:19:18.519Z,1.00
2022-09-21T12:22:30.497Z,0.70
2022-09-21T12:26:02.506Z,0.97
2022-09-21T12:29:14.539Z,0.70
2022-09-21T12:32:39.520Z,0.75
2022-09-21T12:39:20.569Z,0.67
2022-09-21T12:42:34.536Z,0.80
2022-09-21T12:46:01.653Z,0.90
2022-09-21T12:49:01.570Z,0.50
2022-09-21T12:52:25.579Z,0.60
2022-09-21T12:55:39.623Z,0.93
2022-09-21T12:59:17.586Z,0.70
2022-09-21T13:02:37.691Z,0.60
2022-09-21T13:06:23.623Z,0.50
2022-09-21T13:09:35.662Z,0.80
2022-09-21T13:13:03.602Z,0.80
2022-09-21T13:16:17.681Z,0.70
2022-09-21T13:19:30.804Z,0.87
2022-09-21T13:22:46.786Z,0.70
2022-09-21T13:26:11.677Z,0.70
2022-09-21T13:29:31.701Z,0.70
2022-09-21T13:33:02.695Z,0.80
2022-09-21T13:36:18.768Z,0.60
2022-09-21T13:39:43.723Z,0.73
2022-09-21T13:43:08.716Z,0.70
2022-09-21T13:46:21.816Z,0.80
2022-09-21T13:49:39.781Z,0.77
2022-09-21T13:53:04.784Z,0.50
2022-09-21T13:56:16.814Z,0.63
2022-09-21T13:59:42.772Z,0.53
2022-09-21T14:02:57.946Z,0.77
2022-09-21T14:06:26.801Z,0.70
2022-09-21T14:09:43.840Z,0.90
2022-09-21T14:13:07.866Z,0.53
2022-09-21T14:16:07.866Z,0.55
2022-09-21T14:22:41.903Z,0.63
2022-09-21T14:26:13.879Z,0.80
2022-09-21T14:29:30.908Z,0.80
2022-09-21T14:32:57.850Z,0.50
2022-09-21T14:36:09.943Z,0.60
2022-09-21T14:39:38.051Z,0.60
2022-09-21T14:42:51.936Z,0.60
2022-09-21T14:46:27.043Z,0.70
2022-09-21T14:49:53.931Z,0.53
2022-09-21T14:53:20.944Z,0.57
2022-09-21T14:56:38.970Z,0.60
2022-09-21T15:00:09.179Z,0.50
2022-09-21T15:03:28.018Z,0.50
2022-09-21T15:06:57.514Z,0.77
2022-09-21T15:10:16.842Z,0.50
2022-09-21T15:13:43.006Z,0.60
2022-09-21T15:16:59.029Z,0.57
2022-09-21T15:20:29.049Z,0.60
2022-09-21T15:23:42.108Z,0.40
2022-09-21T15:26:54.049Z,0.57
2022-09-21T15:30:07.060Z,0.50
2022-09-21T15:33:22.163Z,0.40
2022-09-21T15:36:36.103Z,0.60
2022-09-21T15:39:51.094Z,0.43
2022-09-21T15:43:03.156Z,0.70
2022-09-21T15:46:27.171Z,0.60
2022-09-21T15:49:39.137Z,0.60
2022-09-21T15:53:06.154Z,0.50
2022-09-21T15:56:06.357Z,0.70
2022-09-21T15:59:21.130Z,0.37
2022-09-21T16:02:35.168Z,0.60
2022-09-21T16:06:09.142Z,0.60
2022-09-21T16:09:23.340Z,0.60
2022-09-21T16:12:56.186Z,0.63
2022-09-21T16:15:55.400Z,0.50
2022-09-21T16:19:19.239Z,0.33
2022-09-21T16:22:19.221Z,0.60
2022-09-21T16:25:51.199Z,0.50
2022-09-21T16:28:55.270Z,0.40
2022-09-21T16:32:26.232Z,0.80
2022-09-21T16:35:46.297Z,0.60
2022-09-21T16:39:14.328Z,0.70
2022-09-21T16:42:24.324Z,0.50
2022-09-21T16:45:51.344Z,0.50
2022-09-21T16:49:03.329Z,0.30
2022-09-21T16:52:28.368Z,0.70
2022-09-21T16:55:29.275Z,0.30
2022-09-21T16:58:56.413Z,0.93
2022-09-21T17:02:08.530Z,0.67
2022-09-21T17:05:21.369Z,0.80
2022-09-21T17:08:33.371Z,0.67
2022-09-21T17:11:46.381Z,0.55
2022-09-21T17:15:00.424Z,0.40
2022-09-21T17:18:16.412Z,0.50
2022-09-21T17:21:17.414Z,0.60
2022-09-21T17:24:56.266Z,1.10
2022-09-21T17:27:41.422Z,0.50
2022-09-21T17:31:06.545Z,0.85
2022-09-21T17:34:18.427Z,0.67
2022-09-21T17:37:31.552Z,0.60
2022-09-21T17:40:32.581Z,0.60
2022-09-21T17:43:59.473Z,0.35
2022-09-21T17:47:13.504Z,0.87
2022-09-21T17:50:40.517Z,0.60
2022-09-21T17:53:46.535Z,0.70
2022-09-21T17:57:10.515Z,0.30
2022-09-21T18:00:23.540Z,0.90
2022-09-21T18:03:49.556Z,0.80
2022-09-21T18:07:04.573Z,0.70
2022-09-21T18:10:17.554Z,0.60
2022-09-21T18:13:34.608Z,0.60
2022-09-21T18:17:02.607Z,0.40
2022-09-21T18:20:21.605Z,0.60
2022-09-21T18:23:47.620Z,0.60
2022-09-21T18:26:48.631Z,0.55
2022-09-21T18:30:01.640Z,0.67
2022-09-21T18:33:23.639Z,0.80
2022-09-21T18:36:50.655Z,1.25
2022-09-21T18:40:02.793Z,1.20
2022-09-21T18:43:29.677Z,1.53
2022-09-21T18:46:41.796Z,1.33
2022-09-21T18:50:11.674Z,1.13
2022-09-21T18:53:26.699Z,1.60
2022-09-21T18:56:50.720Z,1.77
2022-09-21T19:00:03.722Z,2.30
2022-09-21T19:03:27.909Z,1.93
2022-09-21T19:06:49.778Z,2.10
2022-09-21T19:10:20.768Z,1.87
2022-09-21T19:13:37.717Z,1.83
2022-09-21T19:17:02.799Z,2.20
2022-09-21T19:20:19.714Z,2.17
2022-09-21T19:23:41.794Z,1.90
2022-09-21T19:26:58.809Z,1.80
2022-09-21T19:30:25.985Z,1.70
2022-09-21T19:33:51.206Z,1.80
2022-09-21T19:37:08.820Z,1.73
2022-09-21T19:40:08.929Z,1.70
2022-09-21T19:43:38.831Z,1.67
2022-09-21T19:46:51.855Z,1.50
2022-09-21T19:50:15.826Z,1.60
2022-09-21T19:53:33.195Z,1.70
2022-09-21T19:57:02.264Z,1.50
2022-09-21T20:00:21.899Z,1.70
2022-09-21T20:03:50.881Z,1.20
2022-09-21T20:07:02.932Z,1.70
2022-09-21T20:10:28.926Z,1.40
2022-09-21T20:13:45.921Z,1.60
2022-09-21T20:17:12.079Z,1.60
2022-09-21T20:20:23.926Z,1.63
2022-09-21T20:23:37.995Z,1.70
2022-09-21T20:26:49.957Z,1.83
2022-09-21T20:30:01.976Z,1.55
2022-09-21T20:33:15.980Z,1.63
2022-09-21T20:36:27.982Z,2.00
2022-09-21T20:39:28.012Z,1.70
2022-09-21T20:42:39.996Z,2.00
2022-09-21T20:45:52.081Z,2.00
2022-09-21T20:49:19.100Z,1.90
2022-09-21T20:52:19.023Z,1.67
2022-09-21T20:55:32.069Z,1.93
2022-09-21T20:58:33.036Z,1.50
2022-09-21T21:01:45.188Z,2.10
2022-09-21T21:04:59.093Z,1.43
2022-09-21T21:08:11.132Z,1.70
2022-09-21T21:11:11.088Z,1.80
2022-09-21T21:14:23.149Z,1.80
2022-09-21T21:17:27.088Z,2.10
2022-09-21T21:20:53.169Z,2.05
2022-09-21T21:24:19.058Z,1.87
2022-09-21T21:27:43.160Z,2.05
2022-09-21T21:30:43.167Z,2.00
2022-09-21T21:33:55.174Z,1.90
2022-09-21T21:37:09.214Z,2.60
2022-09-21T21:40:22.287Z,2.43
2022-09-21T21:43:22.216Z,2.17
2022-09-21T21:46:35.263Z,2.20
2022-09-21T21:49:47.237Z,2.40
2022-09-21T21:53:13.222Z,2.20
2022-09-21T21:56:29.220Z,1.90
2022-09-21T21:59:45.370Z,2.50
2022-09-21T22:02:46.353Z,2.77
2022-09-21T22:05:59.273Z,2.47
2022-09-21T22:09:13.295Z,2.60
2022-09-21T22:12:25.371Z,2.47
2022-09-21T22:15:25.386Z,2.20
2022-09-21T22:18:52.408Z,2.00
2022-09-21T22:22:04.317Z,2.10
2022-09-21T22:25:31.339Z,2.53
2022-09-21T22:28:31.415Z,2.50
2022-09-21T22:31:55.499Z,2.60
2022-09-21T22:34:55.358Z,2.40
2022-09-21T22:38:07.364Z,2.37
2022-09-21T22:41:21.478Z,2.17
2022-09-21T22:44:34.395Z,2.20
2022-09-21T22:47:34.405Z,2.33
2022-09-21T22:50:46.461Z,2.50
2022-09-21T22:53:58.483Z,2.53
2022-09-21T22:57:24.465Z,2.33
2022-09-21T23:00:28.436Z,2.70
2022-09-21T23:03:40.574Z,2.17
2022-09-21T23:06:52.438Z,2.40
2022-09-21T23:10:04.499Z,2.15
2022-09-21T23:13:31.489Z,2.50
2022-09-21T23:16:56.538Z,2.10
2022-09-21T23:19:56.481Z,2.30
2022-09-21T23:23:08.614Z,2.97
2022-09-21T23:26:27.504Z,2.07
2022-09-21T23:29:54.587Z,2.10
2022-09-21T23:32:54.615Z,2.43
2022-09-21T23:36:07.579Z,2.40
2022-09-21T23:39:22.539Z,2.30
2022-09-21T23:42:34.582Z,2.20
2022-09-21T23:45:48.618Z,2.70
2022-09-21T23:49:01.613Z,2.60
2022-09-21T23:52:01.628Z,2.00
2022-09-21T23:55:14.651Z,2.17
2022-09-21T23:58:14.634Z,2.27
